Terminal Aerodrome Forecast
Issued by NWS

Home | Current Version | Previous Version | Text Only | Print | Product List | Glossary On
Versions: 1 2 3 4 5 6 7 8 9 10 11 12 13 14 15 16 17 18 19 20 21
000
FTUS42 KTBW 020543
TAFPGD
TAF
KPGD 020543Z 0206/0306 17006KT P6SM VCSH SCT025 BKN100 OVC250
     FM020800 17005KT P6SM SCT025 BKN100
      TEMPO 0208/0212 22015G25KT 3SM +SHRA BKN025
     FM021200 16006KT P6SM VCTS FEW025CB BKN100 OVC250
     FM021600 23012G20KT P6SM VCTS SCT025CB BKN050 OVC100
     FM030100 23006KT P6SM VCTS SCT025CB BKN100=

USA.gov is the U.S. government's official web portal to all federal, state and local government web resources and services.